sensor_id;sensor_type;location;lat;lon;timestamp;P1;durP1;ratioP1;P2;durP2;ratioP2
65279;SDS011;51878;55.748;48.742;2023-02-11T00:03:51;9.93;;;5.75;;
65279;SDS011;51878;55.748;48.742;2023-02-11T00:06:19;11.45;;;6.90;;
65279;SDS011;51878;55.748;48.742;2023-02-11T00:08:46;11.38;;;5.95;;
65279;SDS011;51878;55.748;48.742;2023-02-11T00:11:14;11.02;;;5.25;;
65279;SDS011;51878;55.748;48.742;2023-02-11T00:13:43;8.25;;;4.70;;
65279;SDS011;51878;55.748;48.742;2023-02-11T00:16:15;7.40;;;5.15;;
65279;SDS011;51878;55.748;48.742;2023-02-11T00:18:43;12.82;;;6.57;;
65279;SDS011;51878;55.748;48.742;2023-02-11T00:21:12;10.68;;;5.03;;
65279;SDS011;51878;55.748;48.742;2023-02-11T00:23:44;7.07;;;4.40;;
65279;SDS011;51878;55.748;48.742;2023-02-11T00:26:15;11.68;;;6.90;;
65279;SDS011;51878;55.748;48.742;2023-02-11T00:28:46;8.52;;;5.18;;
65279;SDS011;51878;55.748;48.742;2023-02-11T00:31:14;10.77;;;6.30;;
65279;SDS011;51878;55.748;48.742;2023-02-11T00:33:43;10.63;;;6.07;;
65279;SDS011;51878;55.748;48.742;2023-02-11T00:36:15;9.38;;;4.68;;
65279;SDS011;51878;55.748;48.742;2023-02-11T00:38:48;11.10;;;5.93;;
65279;SDS011;51878;55.748;48.742;2023-02-11T00:41:16;12.48;;;6.97;;
65279;SDS011;51878;55.748;48.742;2023-02-11T00:43:44;9.50;;;5.70;;
65279;SDS011;51878;55.748;48.742;2023-02-11T00:46:11;13.65;;;7.15;;
65279;SDS011;51878;55.748;48.742;2023-02-11T00:48:38;13.75;;;6.40;;
65279;SDS011;51878;55.748;48.742;2023-02-11T00:51:05;11.95;;;7.15;;
65279;SDS011;51878;55.748;48.742;2023-02-11T00:53:33;10.88;;;6.82;;
65279;SDS011;51878;55.748;48.742;2023-02-11T00:56:00;7.00;;;3.75;;
65279;SDS011;51878;55.748;48.742;2023-02-11T00:58:27;7.65;;;4.95;;
65279;SDS011;51878;55.748;48.742;2023-02-11T01:00:55;17.73;;;7.30;;
65279;SDS011;51878;55.748;48.742;2023-02-11T01:03:22;13.35;;;7.75;;
65279;SDS011;51878;55.748;48.742;2023-02-11T01:05:49;11.20;;;5.60;;
65279;SDS011;51878;55.748;48.742;2023-02-11T01:08:17;12.30;;;5.50;;
65279;SDS011;51878;55.748;48.742;2023-02-11T01:10:44;10.20;;;5.82;;
65279;SDS011;51878;55.748;48.742;2023-02-11T01:13:11;13.43;;;6.50;;
65279;SDS011;51878;55.748;48.742;2023-02-11T01:15:38;12.13;;;6.97;;
65279;SDS011;51878;55.748;48.742;2023-02-11T01:18:05;19.27;;;8.60;;
65279;SDS011;51878;55.748;48.742;2023-02-11T01:20:32;13.40;;;6.13;;
65279;SDS011;51878;55.748;48.742;2023-02-11T01:22:59;14.23;;;7.90;;
65279;SDS011;51878;55.748;48.742;2023-02-11T01:25:26;11.50;;;5.50;;
65279;SDS011;51878;55.748;48.742;2023-02-11T01:27:53;16.50;;;8.43;;
65279;SDS011;51878;55.748;48.742;2023-02-11T01:30:20;15.05;;;8.30;;
65279;SDS011;51878;55.748;48.742;2023-02-11T01:32:47;6.85;;;4.70;;
65279;SDS011;51878;55.748;48.742;2023-02-11T01:35:14;13.13;;;7.00;;
65279;SDS011;51878;55.748;48.742;2023-02-11T01:37:41;13.50;;;7.35;;
65279;SDS011;51878;55.748;48.742;2023-02-11T01:40:11;13.07;;;7.13;;
65279;SDS011;51878;55.748;48.742;2023-02-11T01:42:40;6.65;;;4.55;;
65279;SDS011;51878;55.748;48.742;2023-02-11T01:51:20;10.95;;;5.55;;
65279;SDS011;51878;55.748;48.742;2023-02-11T01:53:50;11.25;;;6.97;;
65279;SDS011;51878;55.748;48.742;2023-02-11T01:56:38;13.70;;;7.57;;
65279;SDS011;51878;55.748;48.742;2023-02-11T01:59:31;11.20;;;6.85;;
65279;SDS011;51878;55.748;48.742;2023-02-11T02:02:05;11.63;;;6.70;;
65279;SDS011;51878;55.748;48.742;2023-02-11T02:04:49;13.25;;;7.57;;
65279;SDS011;51878;55.748;48.742;2023-02-11T02:07:24;12.18;;;6.85;;
65279;SDS011;51878;55.748;48.742;2023-02-11T02:10:00;13.55;;;6.47;;
65279;SDS011;51878;55.748;48.742;2023-02-11T02:12:31;11.68;;;6.28;;
65279;SDS011;51878;55.748;48.742;2023-02-11T02:16:00;10.60;;;6.47;;
65279;SDS011;51878;55.748;48.742;2023-02-11T02:18:00;11.32;;;5.88;;
65279;SDS011;51878;55.748;48.742;2023-02-11T02:29:27;9.48;;;5.25;;
65279;SDS011;51878;55.748;48.742;2023-02-11T02:38:06;12.18;;;6.75;;
65279;SDS011;51878;55.748;48.742;2023-02-11T02:40:40;13.32;;;8.07;;
65279;SDS011;51878;55.748;48.742;2023-02-11T02:43:16;13.75;;;7.22;;
65279;SDS011;51878;55.748;48.742;2023-02-11T02:45:44;11.63;;;7.05;;
65279;SDS011;51878;55.748;48.742;2023-02-11T02:48:27;6.90;;;4.05;;
65279;SDS011;51878;55.748;48.742;2023-02-11T02:51:10;11.45;;;5.72;;
65279;SDS011;51878;55.748;48.742;2023-02-11T02:53:43;4.85;;;3.40;;
65279;SDS011;51878;55.748;48.742;2023-02-11T02:56:39;8.20;;;4.03;;
65279;SDS011;51878;55.748;48.742;2023-02-11T02:59:23;6.50;;;5.07;;
65279;SDS011;51878;55.748;48.742;2023-02-11T03:02:06;12.20;;;5.72;;
65279;SDS011;51878;55.748;48.742;2023-02-11T03:10:07;13.15;;;6.15;;
65279;SDS011;51878;55.748;48.742;2023-02-11T03:12:41;8.55;;;4.95;;
65279;SDS011;51878;55.748;48.742;2023-02-11T03:15:10;11.88;;;6.90;;
65279;SDS011;51878;55.748;48.742;2023-02-11T03:17:40;12.15;;;8.07;;
65279;SDS011;51878;55.748;48.742;2023-02-11T03:20:11;8.90;;;4.57;;
65279;SDS011;51878;55.748;48.742;2023-02-11T03:25:18;14.13;;;7.78;;
65279;SDS011;51878;55.748;48.742;2023-02-11T03:30:23;13.38;;;5.85;;
65279;SDS011;51878;55.748;48.742;2023-02-11T03:32:56;7.80;;;5.35;;
65279;SDS011;51878;55.748;48.742;2023-02-11T03:35:31;12.23;;;6.47;;
65279;SDS011;51878;55.748;48.742;2023-02-11T03:38:15;10.10;;;6.25;;
65279;SDS011;51878;55.748;48.742;2023-02-11T03:40:47;9.20;;;6.32;;
65279;SDS011;51878;55.748;48.742;2023-02-11T03:43:24;8.40;;;5.38;;
65279;SDS011;51878;55.748;48.742;2023-02-11T03:45:57;10.32;;;6.35;;
65279;SDS011;51878;55.748;48.742;2023-02-11T03:48:30;14.27;;;7.40;;
65279;SDS011;51878;55.748;48.742;2023-02-11T03:51:00;13.45;;;7.25;;
65279;SDS011;51878;55.748;48.742;2023-02-11T03:53:30;13.13;;;7.15;;
65279;SDS011;51878;55.748;48.742;2023-02-11T03:55:59;10.98;;;6.88;;
65279;SDS011;51878;55.748;48.742;2023-02-11T03:58:30;10.63;;;7.10;;
65279;SDS011;51878;55.748;48.742;2023-02-11T04:00:57;8.52;;;5.53;;
65279;SDS011;51878;55.748;48.742;2023-02-11T04:03:24;12.70;;;6.97;;
65279;SDS011;51878;55.748;48.742;2023-02-11T04:05:51;13.07;;;8.07;;
65279;SDS011;51878;55.748;48.742;2023-02-11T04:08:19;13.70;;;7.82;;
65279;SDS011;51878;55.748;48.742;2023-02-11T04:10:46;15.23;;;6.80;;
65279;SDS011;51878;55.748;48.742;2023-02-11T04:13:13;13.32;;;7.18;;
65279;SDS011;51878;55.748;48.742;2023-02-11T04:15:40;9.98;;;5.63;;
65279;SDS011;51878;55.748;48.742;2023-02-11T04:18:07;12.95;;;7.45;;
65279;SDS011;51878;55.748;48.742;2023-02-11T04:20:34;11.57;;;7.00;;
65279;SDS011;51878;55.748;48.742;2023-02-11T04:23:01;15.88;;;8.43;;
65279;SDS011;51878;55.748;48.742;2023-02-11T04:25:28;11.75;;;6.65;;
65279;SDS011;51878;55.748;48.742;2023-02-11T04:27:55;12.18;;;6.55;;
65279;SDS011;51878;55.748;48.742;2023-02-11T04:30:22;11.23;;;7.22;;
65279;SDS011;51878;55.748;48.742;2023-02-11T04:32:49;12.75;;;8.02;;
65279;SDS011;51878;55.748;48.742;2023-02-11T04:35:17;13.57;;;7.88;;
65279;SDS011;51878;55.748;48.742;2023-02-11T04:37:44;10.68;;;6.70;;
65279;SDS011;51878;55.748;48.742;2023-02-11T04:40:11;15.02;;;7.32;;
65279;SDS011;51878;55.748;48.742;2023-02-11T04:42:38;13.63;;;7.10;;
65279;SDS011;51878;55.748;48.742;2023-02-11T04:45:06;10.18;;;6.60;;
65279;SDS011;51878;55.748;48.742;2023-02-11T04:47:33;14.07;;;8.35;;
65279;SDS011;51878;55.748;48.742;2023-02-11T04:50:00;10.50;;;6.05;;
65279;SDS011;51878;55.748;48.742;2023-02-11T04:52:28;8.90;;;5.57;;
65279;SDS011;51878;55.748;48.742;2023-02-11T04:54:55;10.02;;;6.32;;
65279;SDS011;51878;55.748;48.742;2023-02-11T04:57:22;13.68;;;7.95;;
65279;SDS011;51878;55.748;48.742;2023-02-11T04:59:49;14.57;;;7.65;;
65279;SDS011;51878;55.748;48.742;2023-02-11T05:02:16;11.20;;;6.97;;
65279;SDS011;51878;55.748;48.742;2023-02-11T05:04:43;12.48;;;7.38;;
65279;SDS011;51878;55.748;48.742;2023-02-11T05:07:10;12.05;;;7.63;;
65279;SDS011;51878;55.748;48.742;2023-02-11T05:09:37;12.68;;;6.97;;
65279;SDS011;51878;55.748;48.742;2023-02-11T05:12:04;10.65;;;7.25;;
65279;SDS011;51878;55.748;48.742;2023-02-11T05:14:31;10.77;;;6.88;;
65279;SDS011;51878;55.748;48.742;2023-02-11T05:16:58;10.77;;;7.03;;
65279;SDS011;51878;55.748;48.742;2023-02-11T05:19:25;9.68;;;6.25;;
65279;SDS011;51878;55.748;48.742;2023-02-11T05:21:53;17.20;;;7.30;;
65279;SDS011;51878;55.748;48.742;2023-02-11T05:24:29;13.55;;;7.30;;
65279;SDS011;51878;55.748;48.742;2023-02-11T05:26:57;10.05;;;6.55;;
65279;SDS011;51878;55.748;48.742;2023-02-11T05:29:24;10.70;;;7.85;;
65279;SDS011;51878;55.748;48.742;2023-02-11T05:31:51;9.55;;;6.28;;
65279;SDS011;51878;55.748;48.742;2023-02-11T05:34:18;15.00;;;7.78;;
65279;SDS011;51878;55.748;48.742;2023-02-11T05:36:45;15.90;;;7.15;;
65279;SDS011;51878;55.748;48.742;2023-02-11T05:39:12;13.55;;;7.28;;
65279;SDS011;51878;55.748;48.742;2023-02-11T05:41:39;13.77;;;8.23;;
65279;SDS011;51878;55.748;48.742;2023-02-11T05:44:06;12.98;;;7.72;;
65279;SDS011;51878;55.748;48.742;2023-02-11T05:46:33;16.77;;;8.82;;
65279;SDS011;51878;55.748;48.742;2023-02-11T05:49:02;14.63;;;9.90;;
65279;SDS011;51878;55.748;48.742;2023-02-11T05:51:29;15.43;;;9.23;;
65279;SDS011;51878;55.748;48.742;2023-02-11T05:53:56;14.90;;;9.07;;
65279;SDS011;51878;55.748;48.742;2023-02-11T05:56:23;13.57;;;8.45;;
65279;SDS011;51878;55.748;48.742;2023-02-11T05:58:50;20.65;;;10.35;;
65279;SDS011;51878;55.748;48.742;2023-02-11T06:01:17;16.92;;;9.10;;
65279;SDS011;51878;55.748;48.742;2023-02-11T06:03:44;20.02;;;9.48;;
65279;SDS011;51878;55.748;48.742;2023-02-11T06:06:11;21.73;;;10.98;;
65279;SDS011;51878;55.748;48.742;2023-02-11T06:08:38;18.63;;;10.27;;
65279;SDS011;51878;55.748;48.742;2023-02-11T06:11:06;12.20;;;7.90;;
65279;SDS011;51878;55.748;48.742;2023-02-11T06:13:33;20.33;;;9.68;;
65279;SDS011;51878;55.748;48.742;2023-02-11T06:16:00;15.27;;;10.13;;
65279;SDS011;51878;55.748;48.742;2023-02-11T06:18:28;14.57;;;9.45;;
65279;SDS011;51878;55.748;48.742;2023-02-11T06:20:55;18.13;;;10.27;;
65279;SDS011;51878;55.748;48.742;2023-02-11T06:23:22;14.43;;;8.20;;
65279;SDS011;51878;55.748;48.742;2023-02-11T06:25:49;13.50;;;8.82;;
65279;SDS011;51878;55.748;48.742;2023-02-11T06:28:17;13.85;;;8.68;;
65279;SDS011;51878;55.748;48.742;2023-02-11T06:30:45;12.60;;;8.63;;
65279;SDS011;51878;55.748;48.742;2023-02-11T06:33:12;16.58;;;9.98;;
65279;SDS011;51878;55.748;48.742;2023-02-11T06:35:39;18.73;;;11.15;;
65279;SDS011;51878;55.748;48.742;2023-02-11T06:38:06;17.45;;;9.88;;
65279;SDS011;51878;55.748;48.742;2023-02-11T06:40:33;23.17;;;11.85;;
65279;SDS011;51878;55.748;48.742;2023-02-11T06:43:01;13.95;;;9.35;;
65279;SDS011;51878;55.748;48.742;2023-02-11T06:45:28;19.23;;;11.57;;
65279;SDS011;51878;55.748;48.742;2023-02-11T06:47:55;15.18;;;9.10;;
65279;SDS011;51878;55.748;48.742;2023-02-11T06:50:22;16.10;;;9.18;;
65279;SDS011;51878;55.748;48.742;2023-02-11T06:52:49;19.20;;;11.07;;
65279;SDS011;51878;55.748;48.742;2023-02-11T06:55:16;20.10;;;12.57;;
65279;SDS011;51878;55.748;48.742;2023-02-11T06:57:43;23.30;;;11.50;;
65279;SDS011;51878;55.748;48.742;2023-02-11T07:00:10;21.85;;;12.15;;
65279;SDS011;51878;55.748;48.742;2023-02-11T07:02:39;16.45;;;9.90;;
65279;SDS011;51878;55.748;48.742;2023-02-11T07:05:07;19.55;;;11.32;;
65279;SDS011;51878;55.748;48.742;2023-02-11T07:07:37;12.88;;;8.02;;
65279;SDS011;51878;55.748;48.742;2023-02-11T07:10:04;17.17;;;10.32;;
65279;SDS011;51878;55.748;48.742;2023-02-11T07:12:31;19.95;;;11.38;;
65279;SDS011;51878;55.748;48.742;2023-02-11T07:14:58;21.20;;;12.02;;
65279;SDS011;51878;55.748;48.742;2023-02-11T07:17:25;15.40;;;9.50;;
65279;SDS011;51878;55.748;48.742;2023-02-11T07:19:52;13.85;;;9.27;;
65279;SDS011;51878;55.748;48.742;2023-02-11T07:22:19;16.90;;;11.00;;
65279;SDS011;51878;55.748;48.742;2023-02-11T07:24:47;17.70;;;11.00;;
65279;SDS011;51878;55.748;48.742;2023-02-11T07:27:15;18.17;;;11.43;;
65279;SDS011;51878;55.748;48.742;2023-02-11T07:29:42;17.75;;;11.10;;
65279;SDS011;51878;55.748;48.742;2023-02-11T07:32:09;19.45;;;11.73;;
65279;SDS011;51878;55.748;48.742;2023-02-11T07:34:36;16.52;;;10.52;;
65279;SDS011;51878;55.748;48.742;2023-02-11T07:37:03;16.27;;;10.15;;
65279;SDS011;51878;55.748;48.742;2023-02-11T07:39:30;18.13;;;10.68;;
65279;SDS011;51878;55.748;48.742;2023-02-11T07:41:57;17.00;;;9.60;;
65279;SDS011;51878;55.748;48.742;2023-02-11T07:44:24;17.75;;;10.63;;
65279;SDS011;51878;55.748;48.742;2023-02-11T07:46:51;17.70;;;10.90;;
65279;SDS011;51878;55.748;48.742;2023-02-11T07:49:18;14.93;;;9.50;;
65279;SDS011;51878;55.748;48.742;2023-02-11T07:51:45;19.90;;;10.05;;
65279;SDS011;51878;55.748;48.742;2023-02-11T07:54:13;16.58;;;9.85;;
65279;SDS011;51878;55.748;48.742;2023-02-11T07:56:40;25.27;;;10.40;;
65279;SDS011;51878;55.748;48.742;2023-02-11T07:59:07;20.40;;;10.43;;
65279;SDS011;51878;55.748;48.742;2023-02-11T08:01:34;19.05;;;10.95;;
65279;SDS011;51878;55.748;48.742;2023-02-11T08:04:01;14.25;;;8.75;;
65279;SDS011;51878;55.748;48.742;2023-02-11T08:06:30;20.23;;;11.10;;
65279;SDS011;51878;55.748;48.742;2023-02-11T08:09:03;15.32;;;10.23;;
65279;SDS011;51878;55.748;48.742;2023-02-11T08:11:32;15.77;;;10.07;;
65279;SDS011;51878;55.748;48.742;2023-02-11T08:13:59;20.15;;;12.65;;
65279;SDS011;51878;55.748;48.742;2023-02-11T08:16:27;19.80;;;12.23;;
65279;SDS011;51878;55.748;48.742;2023-02-11T08:18:57;20.60;;;12.57;;
65279;SDS011;51878;55.748;48.742;2023-02-11T08:21:27;24.05;;;12.52;;
65279;SDS011;51878;55.748;48.742;2023-02-11T08:23:55;17.95;;;11.40;;
65279;SDS011;51878;55.748;48.742;2023-02-11T08:26:23;18.75;;;11.95;;
65279;SDS011;51878;55.748;48.742;2023-02-11T08:28:52;18.85;;;11.00;;
65279;SDS011;51878;55.748;48.742;2023-02-11T08:31:22;18.25;;;10.95;;
65279;SDS011;51878;55.748;48.742;2023-02-11T08:33:51;17.40;;;11.10;;
65279;SDS011;51878;55.748;48.742;2023-02-11T08:36:21;17.85;;;10.65;;
65279;SDS011;51878;55.748;48.742;2023-02-11T08:38:49;15.48;;;10.60;;
65279;SDS011;51878;55.748;48.742;2023-02-11T08:41:16;15.23;;;10.40;;
65279;SDS011;51878;55.748;48.742;2023-02-11T08:43:44;16.42;;;9.90;;
65279;SDS011;51878;55.748;48.742;2023-02-11T08:46:15;10.10;;;6.85;;
65279;SDS011;51878;55.748;48.742;2023-02-11T08:48:43;9.65;;;5.97;;
65279;SDS011;51878;55.748;48.742;2023-02-11T08:51:18;16.23;;;8.82;;
65279;SDS011;51878;55.748;48.742;2023-02-11T08:53:49;13.90;;;9.52;;
65279;SDS011;51878;55.748;48.742;2023-02-11T08:56:17;17.15;;;10.50;;
65279;SDS011;51878;55.748;48.742;2023-02-11T08:58:45;10.85;;;7.15;;
65279;SDS011;51878;55.748;48.742;2023-02-11T09:01:14;16.45;;;10.00;;
65279;SDS011;51878;55.748;48.742;2023-02-11T09:03:48;12.30;;;7.63;;
65279;SDS011;51878;55.748;48.742;2023-02-11T09:06:15;18.50;;;10.10;;
65279;SDS011;51878;55.748;48.742;2023-02-11T09:08:46;15.10;;;9.48;;
65279;SDS011;51878;55.748;48.742;2023-02-11T09:11:19;18.60;;;9.90;;
65279;SDS011;51878;55.748;48.742;2023-02-11T09:13:50;18.15;;;8.40;;
65279;SDS011;51878;55.748;48.742;2023-02-11T09:16:21;16.92;;;10.80;;
65279;SDS011;51878;55.748;48.742;2023-02-11T09:18:50;12.02;;;8.02;;
65279;SDS011;51878;55.748;48.742;2023-02-11T09:21:17;15.93;;;9.88;;
65279;SDS011;51878;55.748;48.742;2023-02-11T09:23:45;16.60;;;10.48;;
65279;SDS011;51878;55.748;48.742;2023-02-11T09:28:44;18.25;;;9.32;;
65279;SDS011;51878;55.748;48.742;2023-02-11T09:31:13;16.17;;;9.73;;
65279;SDS011;51878;55.748;48.742;2023-02-11T09:33:43;14.07;;;7.53;;
65279;SDS011;51878;55.748;48.742;2023-02-11T09:36:14;14.50;;;8.88;;
65279;SDS011;51878;55.748;48.742;2023-02-11T09:38:42;14.75;;;7.65;;
65279;SDS011;51878;55.748;48.742;2023-02-11T09:44:26;15.50;;;9.15;;
65279;SDS011;51878;55.748;48.742;2023-02-11T09:46:58;15.32;;;9.85;;
65279;SDS011;51878;55.748;48.742;2023-02-11T09:49:33;14.68;;;9.73;;
65279;SDS011;51878;55.748;48.742;2023-02-11T09:54:59;18.95;;;9.73;;
65279;SDS011;51878;55.748;48.742;2023-02-11T09:57:33;14.27;;;9.60;;
65279;SDS011;51878;55.748;48.742;2023-02-11T10:00:11;20.95;;;10.38;;
65279;SDS011;51878;55.748;48.742;2023-02-11T10:11:00;18.20;;;9.95;;
65279;SDS011;51878;55.748;48.742;2023-02-11T10:13:40;15.95;;;9.70;;
65279;SDS011;51878;55.748;48.742;2023-02-11T10:19:54;13.73;;;9.13;;
65279;SDS011;51878;55.748;48.742;2023-02-11T10:22:14;14.90;;;7.03;;
65279;SDS011;51878;55.748;48.742;2023-02-11T10:24:50;11.27;;;8.32;;
65279;SDS011;51878;55.748;48.742;2023-02-11T10:27:20;15.82;;;9.18;;
65279;SDS011;51878;55.748;48.742;2023-02-11T10:29:58;16.33;;;9.10;;
65279;SDS011;51878;55.748;48.742;2023-02-11T10:35:58;12.70;;;7.75;;
65279;SDS011;51878;55.748;48.742;2023-02-11T10:38:25;16.58;;;9.85;;
65279;SDS011;51878;55.748;48.742;2023-02-11T10:40:53;18.80;;;10.60;;
65279;SDS011;51878;55.748;48.742;2023-02-11T10:43:22;18.30;;;10.70;;
65279;SDS011;51878;55.748;48.742;2023-02-11T10:45:55;17.42;;;10.98;;
65279;SDS011;51878;55.748;48.742;2023-02-11T10:56:30;17.20;;;9.65;;
65279;SDS011;51878;55.748;48.742;2023-02-11T10:59:02;16.00;;;9.45;;
65279;SDS011;51878;55.748;48.742;2023-02-11T11:02:16;14.05;;;9.35;;
65279;SDS011;51878;55.748;48.742;2023-02-11T11:06:57;17.02;;;9.45;;
65279;SDS011;51878;55.748;48.742;2023-02-11T11:14:59;11.38;;;6.88;;
65279;SDS011;51878;55.748;48.742;2023-02-11T11:17:30;11.80;;;7.88;;
65279;SDS011;51878;55.748;48.742;2023-02-11T11:20:19;11.52;;;8.05;;
65279;SDS011;51878;55.748;48.742;2023-02-11T11:23:14;16.30;;;9.43;;
65279;SDS011;51878;55.748;48.742;2023-02-11T11:25:45;13.45;;;5.68;;
65279;SDS011;51878;55.748;48.742;2023-02-11T11:31:17;9.48;;;5.47;;
65279;SDS011;51878;55.748;48.742;2023-02-11T11:36:51;14.02;;;8.27;;
65279;SDS011;51878;55.748;48.742;2023-02-11T11:39:39;10.50;;;7.00;;
65279;SDS011;51878;55.748;48.742;2023-02-11T11:42:24;11.65;;;6.75;;
65279;SDS011;51878;55.748;48.742;2023-02-11T11:44:58;11.50;;;7.03;;
65279;SDS011;51878;55.748;48.742;2023-02-11T11:47:55;15.15;;;8.18;;
65279;SDS011;51878;55.748;48.742;2023-02-11T11:50:34;11.00;;;7.65;;
65279;SDS011;51878;55.748;48.742;2023-02-11T11:53:17;11.77;;;6.47;;
65279;SDS011;51878;55.748;48.742;2023-02-11T11:56:17;13.93;;;8.63;;
65279;SDS011;51878;55.748;48.742;2023-02-11T11:58:48;11.63;;;7.25;;
65279;SDS011;51878;55.748;48.742;2023-02-11T12:01:22;12.70;;;7.45;;
65279;SDS011;51878;55.748;48.742;2023-02-11T12:04:22;14.75;;;7.82;;
65279;SDS011;51878;55.748;48.742;2023-02-11T12:07:53;14.95;;;9.13;;
65279;SDS011;51878;55.748;48.742;2023-02-11T12:12:43;13.77;;;8.07;;
65279;SDS011;51878;55.748;48.742;2023-02-11T12:15:37;13.07;;;8.13;;
65279;SDS011;51878;55.748;48.742;2023-02-11T12:26:21;9.77;;;6.55;;
65279;SDS011;51878;55.748;48.742;2023-02-11T12:28:59;17.52;;;9.07;;
65279;SDS011;51878;55.748;48.742;2023-02-11T12:34:31;12.80;;;7.45;;
65279;SDS011;51878;55.748;48.742;2023-02-11T12:37:23;14.48;;;7.75;;
65279;SDS011;51878;55.748;48.742;2023-02-11T12:51:29;7.70;;;5.55;;
65279;SDS011;51878;55.748;48.742;2023-02-11T12:56:56;7.78;;;4.28;;
65279;SDS011;51878;55.748;48.742;2023-02-11T13:02:10;10.80;;;6.10;;
65279;SDS011;51878;55.748;48.742;2023-02-11T13:04:46;10.93;;;5.85;;
65279;SDS011;51878;55.748;48.742;2023-02-11T13:07:28;8.88;;;5.82;;
65279;SDS011;51878;55.748;48.742;2023-02-11T13:12:40;11.70;;;6.53;;
65279;SDS011;51878;55.748;48.742;2023-02-11T13:15:29;11.88;;;6.18;;
65279;SDS011;51878;55.748;48.742;2023-02-11T13:18:05;13.95;;;7.30;;
65279;SDS011;51878;55.748;48.742;2023-02-11T13:20:47;13.68;;;7.53;;
65279;SDS011;51878;55.748;48.742;2023-02-11T13:23:22;10.80;;;5.75;;
65279;SDS011;51878;55.748;48.742;2023-02-11T13:26:02;10.38;;;6.25;;
65279;SDS011;51878;55.748;48.742;2023-02-11T13:31:15;12.02;;;5.78;;
65279;SDS011;51878;55.748;48.742;2023-02-11T13:33:45;9.23;;;5.30;;
65279;SDS011;51878;55.748;48.742;2023-02-11T13:36:16;10.02;;;5.50;;
65279;SDS011;51878;55.748;48.742;2023-02-11T13:38:51;8.65;;;5.32;;
65279;SDS011;51878;55.748;48.742;2023-02-11T13:41:22;8.68;;;5.15;;
65279;SDS011;51878;55.748;48.742;2023-02-11T13:51:59;8.15;;;4.30;;
65279;SDS011;51878;55.748;48.742;2023-02-11T13:54:37;10.50;;;5.63;;
65279;SDS011;51878;55.748;48.742;2023-02-11T14:00:42;8.98;;;5.03;;
65279;SDS011;51878;55.748;48.742;2023-02-11T14:12:15;10.43;;;6.22;;
65279;SDS011;51878;55.748;48.742;2023-02-11T14:14:57;14.00;;;8.25;;
65279;SDS011;51878;55.748;48.742;2023-02-11T14:17:30;13.60;;;8.55;;
65279;SDS011;51878;55.748;48.742;2023-02-11T14:20:00;15.02;;;8.93;;
65279;SDS011;51878;55.748;48.742;2023-02-11T14:22:39;15.02;;;7.72;;
65279;SDS011;51878;55.748;48.742;2023-02-11T14:25:21;16.05;;;9.05;;
65279;SDS011;51878;55.748;48.742;2023-02-11T14:27:58;16.63;;;8.85;;
65279;SDS011;51878;55.748;48.742;2023-02-11T14:30:44;19.50;;;9.05;;
65279;SDS011;51878;55.748;48.742;2023-02-11T14:33:15;14.93;;;8.05;;
65279;SDS011;51878;55.748;48.742;2023-02-11T14:41:20;9.52;;;6.47;;
65279;SDS011;51878;55.748;48.742;2023-02-11T14:43:51;13.18;;;7.00;;
65279;SDS011;51878;55.748;48.742;2023-02-11T14:46:24;9.73;;;6.40;;
65279;SDS011;51878;55.748;48.742;2023-02-11T14:48:56;11.98;;;7.70;;
65279;SDS011;51878;55.748;48.742;2023-02-11T14:51:30;11.88;;;7.10;;
65279;SDS011;51878;55.748;48.742;2023-02-11T14:54:04;9.75;;;6.90;;
65279;SDS011;51878;55.748;48.742;2023-02-11T14:56:44;9.00;;;6.05;;
65279;SDS011;51878;55.748;48.742;2023-02-11T14:59:16;10.60;;;6.55;;
65279;SDS011;51878;55.748;48.742;2023-02-11T15:01:49;18.70;;;5.87;;
65279;SDS011;51878;55.748;48.742;2023-02-11T15:04:21;8.85;;;5.53;;
65279;SDS011;51878;55.748;48.742;2023-02-11T15:06:57;10.00;;;5.38;;
65279;SDS011;51878;55.748;48.742;2023-02-11T15:09:39;8.30;;;5.63;;
65279;SDS011;51878;55.748;48.742;2023-02-11T15:12:30;8.77;;;5.30;;
65279;SDS011;51878;55.748;48.742;2023-02-11T15:14:57;13.73;;;6.70;;
65279;SDS011;51878;55.748;48.742;2023-02-11T15:17:27;11.65;;;6.85;;
65279;SDS011;51878;55.748;48.742;2023-02-11T15:19:59;9.43;;;6.57;;
65279;SDS011;51878;55.748;48.742;2023-02-11T15:22:29;12.35;;;7.15;;
65279;SDS011;51878;55.748;48.742;2023-02-11T15:25:07;9.77;;;6.63;;
65279;SDS011;51878;55.748;48.742;2023-02-11T15:27:49;13.57;;;8.55;;
65279;SDS011;51878;55.748;48.742;2023-02-11T15:32:51;8.27;;;4.47;;
65279;SDS011;51878;55.748;48.742;2023-02-11T15:35:27;18.83;;;6.53;;
65279;SDS011;51878;55.748;48.742;2023-02-11T15:38:00;10.10;;;6.13;;
65279;SDS011;51878;55.748;48.742;2023-02-11T15:40:29;12.70;;;7.70;;
65279;SDS011;51878;55.748;48.742;2023-02-11T15:42:59;10.10;;;5.18;;
65279;SDS011;51878;55.748;48.742;2023-02-11T15:45:29;9.95;;;5.65;;
65279;SDS011;51878;55.748;48.742;2023-02-11T15:50:41;13.65;;;6.55;;
65279;SDS011;51878;55.748;48.742;2023-02-11T15:56:02;13.75;;;8.07;;
65279;SDS011;51878;55.748;48.742;2023-02-11T15:58:34;7.80;;;4.10;;
65279;SDS011;51878;55.748;48.742;2023-02-11T16:01:02;10.07;;;6.07;;
65279;SDS011;51878;55.748;48.742;2023-02-11T16:03:31;12.05;;;7.07;;
65279;SDS011;51878;55.748;48.742;2023-02-11T16:06:17;11.82;;;6.13;;
65279;SDS011;51878;55.748;48.742;2023-02-11T16:11:32;11.02;;;5.90;;
65279;SDS011;51878;55.748;48.742;2023-02-11T16:14:17;11.40;;;5.78;;
65279;SDS011;51878;55.748;48.742;2023-02-11T16:19:27;10.75;;;6.45;;
65279;SDS011;51878;55.748;48.742;2023-02-11T16:21:56;13.18;;;7.50;;
65279;SDS011;51878;55.748;48.742;2023-02-11T16:24:30;11.70;;;6.75;;
65279;SDS011;51878;55.748;48.742;2023-02-11T16:26:59;10.25;;;6.47;;
65279;SDS011;51878;55.748;48.742;2023-02-11T16:29:29;12.75;;;7.25;;
65279;SDS011;51878;55.748;48.742;2023-02-11T16:34:48;13.38;;;6.95;;
65279;SDS011;51878;55.748;48.742;2023-02-11T16:37:15;12.07;;;7.28;;
65279;SDS011;51878;55.748;48.742;2023-02-11T16:39:42;12.32;;;7.18;;
65279;SDS011;51878;55.748;48.742;2023-02-11T16:42:12;12.20;;;7.15;;
65279;SDS011;51878;55.748;48.742;2023-02-11T16:44:39;14.23;;;6.45;;
65279;SDS011;51878;55.748;48.742;2023-02-11T16:47:09;16.52;;;6.53;;
65279;SDS011;51878;55.748;48.742;2023-02-11T16:49:45;13.65;;;7.05;;
65279;SDS011;51878;55.748;48.742;2023-02-11T16:52:13;14.65;;;9.32;;
65279;SDS011;51878;55.748;48.742;2023-02-11T16:54:42;11.20;;;6.55;;
65279;SDS011;51878;55.748;48.742;2023-02-11T16:57:30;10.70;;;6.93;;
65279;SDS011;51878;55.748;48.742;2023-02-11T16:59:57;15.13;;;8.52;;
65279;SDS011;51878;55.748;48.742;2023-02-11T17:02:25;13.30;;;7.20;;
65279;SDS011;51878;55.748;48.742;2023-02-11T17:05:02;13.68;;;7.85;;
65279;SDS011;51878;55.748;48.742;2023-02-11T17:07:31;14.00;;;7.25;;
65279;SDS011;51878;55.748;48.742;2023-02-11T17:09:58;9.80;;;6.03;;
65279;SDS011;51878;55.748;48.742;2023-02-11T17:12:25;15.18;;;8.45;;
65279;SDS011;51878;55.748;48.742;2023-02-11T17:14:52;13.55;;;8.82;;
65279;SDS011;51878;55.748;48.742;2023-02-11T17:17:19;8.95;;;5.97;;
65279;SDS011;51878;55.748;48.742;2023-02-11T17:19:49;11.88;;;7.53;;
65279;SDS011;51878;55.748;48.742;2023-02-11T17:22:17;14.90;;;7.63;;
65279;SDS011;51878;55.748;48.742;2023-02-11T17:24:44;11.38;;;6.30;;